Time;durP1;ratioP1;P1;durP2;ratioP2;P2;SDS_P1;SDS_P2;PMS_P1;PMS_P2;Temp;Humidity;BMP_temperature;BMP_pressure;BME280_temperature;BME280_humidity;BME280_pressure;Samples;Min_cycle;Max_cycle;Signal;HPM_P1;HPM_P2
2022/08/15 00:01:01;;;;;;;8.05;5.30;;;;;;;;;;5051813;28;20049;-53
2022/08/15 00:03:30;;;;;;;10.45;6.85;;;;;;;;;;5053853;28;20099;-50
2022/08/15 00:05:58;;;;;;;6.10;4.47;;;;;;;;;;5052872;28;20480;-52
2022/08/15 00:08:25;;;;;;;8.18;5.38;;;;;;;;;;5047810;28;20506;-50
2022/08/15 00:10:59;;;;;;;8.07;4.80;;;;;;;;;;5032348;28;20054;-49
2022/08/15 00:13:28;;;;;;;6.72;4.95;;;;;;;;;;5036656;28;20060;-49
2022/08/15 00:16:01;;;;;;;8.68;5.07;;;;;;;;;;5053369;28;20064;-51
2022/08/15 00:18:30;;;;;;;7.65;4.82;;;;;;;;;;5053161;28;20482;-50
2022/08/15 00:21:02;;;;;;;8.48;6.05;;;;;;;;;;5052375;28;20159;-50
2022/08/15 00:23:30;;;;;;;8.48;5.45;;;;;;;;;;5053295;28;20347;-49
2022/08/15 00:26:01;;;;;;;10.27;6.50;;;;;;;;;;5052769;28;20060;-51
2022/08/15 00:28:29;;;;;;;9.73;5.82;;;;;;;;;;5052400;28;20071;-49
2022/08/15 00:31:13;;;;;;;6.45;4.68;;;;;;;;;;5052832;28;20063;-49
2022/08/15 00:33:41;;;;;;;6.95;4.60;;;;;;;;;;5052936;28;20401;-49
2022/08/15 00:36:14;;;;;;;6.68;4.75;;;;;;;;;;5053341;28;20095;-50
2022/08/15 00:38:44;;;;;;;6.70;4.65;;;;;;;;;;5053057;28;20053;-50
2022/08/15 00:44:00;;;;;;;;;;;;;;;;;;5053423;28;20186;-50
2022/08/15 00:46:37;;;;;;;6.78;4.28;;;;;;;;;;5052752;28;19995;-50
2022/08/15 00:49:06;;;;;;;8.50;4.68;;;;;;;;;;5053093;28;20061;-50
2022/08/15 00:51:43;;;;;;;7.47;4.80;;;;;;;;;;5051916;28;20535;-49
2022/08/15 00:54:19;;;;;;;7.03;4.75;;;;;;;;;;5053132;28;20060;-50
2022/08/15 00:56:54;;;;;;;6.97;4.95;;;;;;;;;;5052700;28;20045;-49
2022/08/15 00:59:23;;;;;;;6.68;4.85;;;;;;;;;;5053024;28;20049;-49
2022/08/15 01:02:06;;;;;;;8.57;4.82;;;;;;;;;;5052832;28;20154;-50
2022/08/15 01:04:42;;;;;;;7.97;5.20;;;;;;;;;;5052714;28;20060;-49
2022/08/15 01:07:20;;;;;;;9.38;5.57;;;;;;;;;;5052503;28;20437;-49
2022/08/15 01:09:49;;;;;;;7.97;4.80;;;;;;;;;;5036470;28;20454;-50
2022/08/15 01:12:20;;;;;;;8.80;5.35;;;;;;;;;;5032902;28;20129;-49
2022/08/15 01:14:51;;;;;;;8.23;6.10;;;;;;;;;;5048641;28;20056;-50
2022/08/15 01:17:26;;;;;;;8.20;5.15;;;;;;;;;;5052652;28;20059;-50
2022/08/15 01:19:54;;;;;;;;;;;;;;;;;;5052829;28;20061;-50
2022/08/15 01:22:31;;;;;;;7.72;5.30;;;;;;;;;;5046713;28;19974;-50
2022/08/15 01:25:12;;;;;;;10.38;5.50;;;;;;;;;;5056124;28;20049;-51
2022/08/15 01:27:42;;;;;;;10.00;5.68;;;;;;;;;;5056454;28;20115;-51
2022/08/15 01:30:21;;;;;;;8.93;5.47;;;;;;;;;;5056524;28;20110;-50
2022/08/15 01:32:47;;;;;;;9.02;5.38;;;;;;;;;;5056751;28;20059;-49
2022/08/15 01:35:17;;;;;;;7.75;5.72;;;;;;;;;;5056586;28;20063;-49
2022/08/15 01:37:46;;;;;;;9.38;6.15;;;;;;;;;;5056082;28;20531;-50
2022/08/15 01:40:22;;;;;;;9.45;5.18;;;;;;;;;;5056322;28;20067;-50
2022/08/15 01:42:51;;;;;;;8.70;5.22;;;;;;;;;;5056071;28;20446;-52
2022/08/15 01:45:21;;;;;;;7.15;4.85;;;;;;;;;;5056499;28;20053;-50
2022/08/15 01:47:51;;;;;;;10.32;5.72;;;;;;;;;;5056032;28;20512;-53
2022/08/15 01:50:23;;;;;;;7.32;5.35;;;;;;;;;;5056329;28;20518;-50
2022/08/15 01:52:58;;;;;;;8.18;5.50;;;;;;;;;;5050573;28;20056;-50
2022/08/15 01:55:36;;;;;;;9.55;6.22;;;;;;;;;;5055893;28;20527;-49
2022/08/15 01:58:05;;;;;;;8.55;5.43;;;;;;;;;;5056145;28;20059;-48
2022/08/15 02:00:34;;;;;;;7.70;5.70;;;;;;;;;;5056003;28;20053;-49
2022/08/15 02:03:04;;;;;;;8.23;5.72;;;;;;;;;;5055757;28;20139;-51
2022/08/15 02:05:34;;;;;;;13.73;8.00;;;;;;;;;;5056153;28;20084;-50
2022/08/15 02:08:03;;;;;;;10.65;7.10;;;;;;;;;;5053755;28;20057;-49
2022/08/15 02:10:34;;;;;;;7.47;5.90;;;;;;;;;;5035892;28;20087;-51
2022/08/15 02:13:04;;;;;;;7.57;5.43;;;;;;;;;;5036606;28;20670;-48
2022/08/15 02:15:31;;;;;;;8.20;5.15;;;;;;;;;;5055776;28;20052;-51
2022/08/15 02:18:01;;;;;;;9.75;6.28;;;;;;;;;;5048759;28;20525;-49
2022/08/15 02:20:28;;;;;;;7.72;5.70;;;;;;;;;;5035738;28;20057;-49
2022/08/15 02:23:04;;;;;;;8.40;6.03;;;;;;;;;;5045131;28;20058;-48
2022/08/15 02:25:36;;;;;;;9.77;5.88;;;;;;;;;;5035634;28;20088;-49
2022/08/15 02:28:06;;;;;;;7.80;5.53;;;;;;;;;;5036319;28;20068;-49
2022/08/15 02:30:36;;;;;;;8.38;5.70;;;;;;;;;;5055530;28;20106;-50
2022/08/15 02:33:07;;;;;;;8.32;5.82;;;;;;;;;;5054448;28;20624;-51
2022/08/15 02:35:38;;;;;;;13.02;7.78;;;;;;;;;;5055596;28;20069;-49
2022/08/15 02:38:05;;;;;;;9.27;5.93;;;;;;;;;;5055392;28;20069;-48
2022/08/15 02:40:32;;;;;;;12.63;7.65;;;;;;;;;;5055256;28;20385;-48
2022/08/15 02:43:03;;;;;;;10.68;7.30;;;;;;;;;;5054960;28;20449;-49
2022/08/15 02:45:38;;;;;;;8.98;6.20;;;;;;;;;;5055387;28;20041;-48
2022/08/15 02:48:08;;;;;;;10.43;7.00;;;;;;;;;;5055348;28;20072;-49
2022/08/15 02:50:38;;;;;;;10.60;6.95;;;;;;;;;;5055198;28;20045;-49
2022/08/15 02:53:09;;;;;;;9.77;6.50;;;;;;;;;;5055063;28;20049;-49
2022/08/15 02:55:43;;;;;;;8.23;5.47;;;;;;;;;;5054928;28;20064;-51
2022/08/15 02:58:19;;;;;;;10.40;6.45;;;;;;;;;;5055139;28;20072;-48
2022/08/15 03:00:46;;;;;;;8.95;6.18;;;;;;;;;;5055044;28;20053;-49
2022/08/15 03:03:14;;;;;;;9.90;6.93;;;;;;;;;;5054948;28;20044;-49
2022/08/15 03:05:43;;;;;;;9.48;6.00;;;;;;;;;;5054805;28;20202;-49
2022/08/15 03:08:11;;;;;;;9.98;6.13;;;;;;;;;;5054312;28;20072;-50
2022/08/15 03:10:40;;;;;;;11.27;6.95;;;;;;;;;;5051897;28;20377;-48
2022/08/15 03:13:16;;;;;;;10.88;7.18;;;;;;;;;;5053864;28;20087;-50
2022/08/15 03:15:47;;;;;;;8.27;6.30;;;;;;;;;;5054375;28;20049;-52
2022/08/15 03:18:16;;;;;;;11.95;7.20;;;;;;;;;;5054478;28;20049;-51
2022/08/15 03:20:45;;;;;;;7.68;6.43;;;;;;;;;;5054489;28;20068;-49
2022/08/15 03:23:15;;;;;;;8.13;5.75;;;;;;;;;;5054438;28;20056;-49
2022/08/15 03:25:44;;;;;;;10.07;6.38;;;;;;;;;;5054502;28;20049;-50
2022/08/15 03:28:13;;;;;;;10.18;6.20;;;;;;;;;;5054028;28;20048;-49
2022/08/15 03:30:43;;;;;;;8.73;5.80;;;;;;;;;;5054044;28;20409;-48
2022/08/15 03:33:23;;;;;;;8.20;6.05;;;;;;;;;;5054419;28;20107;-49
2022/08/15 03:35:54;;;;;;;10.35;5.55;;;;;;;;;;5054453;28;20053;-49
2022/08/15 03:38:23;;;;;;;8.50;6.43;;;;;;;;;;5054176;28;20077;-49
2022/08/15 03:40:53;;;;;;;7.90;5.57;;;;;;;;;;5054015;28;20049;-49
2022/08/15 03:43:21;;;;;;;9.45;6.78;;;;;;;;;;5054244;28;20141;-49
2022/08/15 03:45:52;;;;;;;8.98;6.85;;;;;;;;;;5052966;28;20469;-49
2022/08/15 03:48:31;;;;;;;9.20;6.55;;;;;;;;;;5053966;28;20056;-49
2022/08/15 03:51:07;;;;;;;7.40;5.70;;;;;;;;;;5053973;28;20114;-49
2022/08/15 03:53:35;;;;;;;10.13;6.32;;;;;;;;;;5053446;28;20458;-49
2022/08/15 03:56:05;;;;;;;9.05;6.07;;;;;;;;;;5053083;28;20045;-48
2022/08/15 03:58:35;;;;;;;10.98;6.43;;;;;;;;;;5053407;28;20060;-49
2022/08/15 04:01:04;;;;;;;8.75;6.13;;;;;;;;;;5053513;28;20048;-49
2022/08/15 04:03:39;;;;;;;14.18;9.80;;;;;;;;;;5052880;28;20511;-50
2022/08/15 04:06:10;;;;;;;10.10;7.38;;;;;;;;;;5053149;28;20064;-49
2022/08/15 04:08:47;;;;;;;9.70;7.25;;;;;;;;;;5053619;28;20045;-49
2022/08/15 04:11:16;;;;;;;11.40;6.10;;;;;;;;;;5053257;28;20144;-48
2022/08/15 04:13:43;;;;;;;8.93;5.95;;;;;;;;;;5053130;28;20056;-51
2022/08/15 04:16:11;;;;;;;11.40;7.88;;;;;;;;;;5053072;28;20048;-49
2022/08/15 04:18:39;;;;;;;9.88;6.65;;;;;;;;;;5053142;28;20053;-48
2022/08/15 04:21:08;;;;;;;7.82;6.45;;;;;;;;;;5053124;28;20059;-49
2022/08/15 04:23:37;;;;;;;9.60;6.30;;;;;;;;;;5038976;28;20140;-49
2022/08/15 04:26:08;;;;;;;9.75;6.63;;;;;;;;;;5033563;28;20059;-49
2022/08/15 04:28:43;;;;;;;10.43;6.50;;;;;;;;;;5038364;28;20060;-52
2022/08/15 04:31:11;;;;;;;11.20;6.53;;;;;;;;;;5053381;28;20065;-49
2022/08/15 04:33:42;;;;;;;8.05;6.47;;;;;;;;;;5053135;28;20476;-49
2022/08/15 04:36:12;;;;;;;9.18;6.63;;;;;;;;;;5053326;28;20053;-48
2022/08/15 04:38:47;;;;;;;9.60;7.45;;;;;;;;;;5052853;28;20136;-49
2022/08/15 04:41:15;;;;;;;9.88;6.15;;;;;;;;;;5053004;28;20482;-49
2022/08/15 04:43:42;;;;;;;9.30;6.60;;;;;;;;;;5052679;28;20076;-49
2022/08/15 04:46:13;;;;;;;7.38;5.78;;;;;;;;;;5053191;28;20060;-49
2022/08/15 04:48:41;;;;;;;7.80;6.13;;;;;;;;;;5052382;28;20098;-49
2022/08/15 04:51:08;;;;;;;12.43;6.07;;;;;;;;;;5053094;28;20049;-49
2022/08/15 04:53:39;;;;;;;9.52;6.38;;;;;;;;;;5051852;28;20376;-49
2022/08/15 04:56:07;;;;;;;7.32;5.80;;;;;;;;;;5053390;28;20049;-50
2022/08/15 04:58:38;;;;;;;9.20;6.57;;;;;;;;;;5055669;28;20339;-49
2022/08/15 05:01:08;;;;;;;9.57;7.05;;;;;;;;;;5050258;28;20098;-49
2022/08/15 05:03:37;;;;;;;9.60;6.85;;;;;;;;;;5050160;28;20060;-49
2022/08/15 05:06:10;;;;;;;13.60;8.10;;;;;;;;;;5047935;28;20045;-49
2022/08/15 05:08:40;;;;;;;11.25;7.47;;;;;;;;;;5056406;28;20139;-52
2022/08/15 05:11:17;;;;;;;9.98;6.80;;;;;;;;;;5056874;28;20438;-49
2022/08/15 05:13:48;;;;;;;12.40;7.18;;;;;;;;;;5056973;28;20123;-48
2022/08/15 05:16:17;;;;;;;10.38;6.30;;;;;;;;;;5056695;28;20493;-48
2022/08/15 05:21:28;;;;;;;8.77;6.20;;;;;;;;;;5056673;28;20079;-52
2022/08/15 05:23:57;;;;;;;13.23;6.75;;;;;;;;;;5056224;28;20466;-48
2022/08/15 05:26:24;;;;;;;10.00;6.45;;;;;;;;;;5056869;28;20389;-48
2022/08/15 05:28:52;;;;;;;8.93;6.55;;;;;;;;;;5056008;28;20119;-52
2022/08/15 05:31:19;;;;;;;12.00;7.60;;;;;;;;;;5055376;28;20048;-49
2022/08/15 05:33:47;;;;;;;10.75;7.57;;;;;;;;;;5055803;28;20045;-48
2022/08/15 05:36:17;;;;;;;8.82;6.70;;;;;;;;;;5056406;28;20056;-50
2022/08/15 05:39:01;;;;;;;13.00;8.07;;;;;;;;;;5042544;28;20132;-49
2022/08/15 05:41:31;;;;;;;10.52;7.07;;;;;;;;;;5036118;28;20076;-49
2022/08/15 05:44:06;;;;;;;12.48;8.55;;;;;;;;;;5036260;28;20148;-49
2022/08/15 05:46:42;;;;;;;10.23;8.15;;;;;;;;;;5036003;28;20102;-49
2022/08/15 05:49:19;;;;;;;14.93;8.40;;;;;;;;;;5043891;28;20045;-49
2022/08/15 05:51:51;;;;;;;10.38;8.13;;;;;;;;;;5047660;28;20050;-49
2022/08/15 05:54:20;;;;;;;13.82;8.05;;;;;;;;;;5055983;28;20132;-49
2022/08/15 05:56:53;;;;;;;11.05;7.32;;;;;;;;;;5045346;28;20064;-52
2022/08/15 05:59:20;;;;;;;11.70;8.73;;;;;;;;;;5049891;28;20144;-51
2022/08/15 06:01:51;;;;;;;10.93;7.00;;;;;;;;;;5055731;28;20049;-51
2022/08/15 06:04:23;;;;;;;15.10;8.63;;;;;;;;;;5055872;28;20110;-52
2022/08/15 06:06:50;;;;;;;11.05;8.00;;;;;;;;;;5055051;28;20059;-54
2022/08/15 06:09:28;;;;;;;12.40;7.38;;;;;;;;;;5054435;28;20064;-52
2022/08/15 06:12:09;;;;;;;10.95;7.50;;;;;;;;;;5055682;28;20048;-54
2022/08/15 06:14:42;;;;;;;11.75;7.95;;;;;;;;;;5045436;28;20077;-51
2022/08/15 06:17:18;;;;;;;10.38;8.13;;;;;;;;;;5050538;28;20044;-52
2022/08/15 06:19:48;;;;;;;8.65;6.85;;;;;;;;;;5055518;28;20136;-52
2022/08/15 06:22:34;;;;;;;12.40;8.27;;;;;;;;;;5054551;28;20057;-51
2022/08/15 06:25:17;;;;;;;10.30;7.32;;;;;;;;;;5055136;28;20369;-51
2022/08/15 06:27:52;;;;;;;9.23;6.70;;;;;;;;;;5048040;28;20063;-53
2022/08/15 06:30:27;;;;;;;11.98;8.15;;;;;;;;;;5044676;28;20053;-54
2022/08/15 06:33:01;;;;;;;12.00;8.10;;;;;;;;;;5055606;28;20141;-51
2022/08/15 06:35:33;;;;;;;14.07;8.40;;;;;;;;;;5055313;28;20051;-53
2022/08/15 06:38:10;;;;;;;11.65;7.18;;;;;;;;;;5055332;28;20330;-51
2022/08/15 06:40:49;;;;;;;10.98;7.35;;;;;;;;;;5054416;28;20065;-53
2022/08/15 06:43:19;;;;;;;12.43;7.25;;;;;;;;;;5054869;28;20114;-50
2022/08/15 06:45:53;;;;;;;10.02;7.30;;;;;;;;;;5042540;28;20254;-51
2022/08/15 06:48:27;;;;;;;10.43;7.43;;;;;;;;;;5054359;28;20057;-51
2022/08/15 06:53:44;;;;;;;10.82;7.43;;;;;;;;;;5051380;28;20045;-50
2022/08/15 06:56:30;;;;;;;12.88;8.82;;;;;;;;;;5045001;28;20056;-50
2022/08/15 06:59:01;;;;;;;10.52;7.65;;;;;;;;;;5054212;28;20060;-49
2022/08/15 07:01:38;;;;;;;12.25;8.35;;;;;;;;;;5052963;28;20140;-49
2022/08/15 07:04:10;;;;;;;12.48;9.02;;;;;;;;;;5052744;28;20041;-48
2022/08/15 07:06:45;;;;;;;13.05;8.55;;;;;;;;;;5054154;28;20052;-50
2022/08/15 07:09:24;;;;;;;12.05;8.95;;;;;;;;;;5044610;28;20053;-48
2022/08/15 07:12:14;;;;;;;11.68;8.50;;;;;;;;;;5042471;28;20111;-49
2022/08/15 07:15:01;;;;;;;13.68;9.38;;;;;;;;;;5042148;28;20044;-49
2022/08/15 07:17:32;;;;;;;11.32;7.82;;;;;;;;;;5044828;28;20071;-50
2022/08/15 07:20:00;;;;;;;11.55;8.50;;;;;;;;;;5040663;28;20064;-49
2022/08/15 07:22:26;;;;;;;9.02;7.22;;;;;;;;;;5044763;28;20112;-49
2022/08/15 07:24:55;;;;;;;11.13;7.30;;;;;;;;;;5039188;28;20045;-49
2022/08/15 07:27:32;;;;;;;10.73;7.18;;;;;;;;;;5052383;28;20048;-49
2022/08/15 07:30:04;;;;;;;9.80;6.72;;;;;;;;;;5054146;28;20056;-50
2022/08/15 07:32:36;;;;;;;11.05;8.35;;;;;;;;;;5053916;28;20132;-52
2022/08/15 07:35:07;;;;;;;11.98;8.60;;;;;;;;;;5052669;28;20375;-55
2022/08/15 07:37:42;;;;;;;12.18;8.70;;;;;;;;;;5037174;28;20057;-52
2022/08/15 07:40:22;;;;;;;13.50;8.32;;;;;;;;;;5043472;28;20045;-51
2022/08/15 07:42:53;;;;;;;10.82;7.32;;;;;;;;;;5052483;28;20053;-51
2022/08/15 07:45:21;;;;;;;12.18;8.40;;;;;;;;;;5053074;28;20397;-51
2022/08/15 07:48:01;;;;;;;10.68;8.30;;;;;;;;;;5053018;28;20529;-51
2022/08/15 07:50:33;;;;;;;10.55;8.02;;;;;;;;;;5053188;28;20110;-50
2022/08/15 07:53:10;;;;;;;8.75;7.30;;;;;;;;;;5045092;28;20075;-53
2022/08/15 07:55:39;;;;;;;11.75;7.95;;;;;;;;;;5037342;28;20133;-51
2022/08/15 07:58:19;;;;;;;10.65;8.00;;;;;;;;;;5053122;28;20041;-53
2022/08/15 08:00:55;;;;;;;8.85;7.60;;;;;;;;;;5052450;28;20055;-52
2022/08/15 08:03:29;;;;;;;10.40;8.27;;;;;;;;;;5053039;28;20049;-52
2022/08/15 08:06:01;;;;;;;12.40;8.80;;;;;;;;;;5053440;28;20055;-52
2022/08/15 08:08:33;;;;;;;9.55;7.20;;;;;;;;;;5041008;28;20652;-51
2022/08/15 08:11:05;;;;;;;11.50;8.75;;;;;;;;;;5047593;28;20465;-51
2022/08/15 08:13:45;;;;;;;11.70;8.05;;;;;;;;;;5052584;28;20428;-51
2022/08/15 08:16:19;;;;;;;10.68;7.85;;;;;;;;;;5052307;28;20059;-50
2022/08/15 08:18:51;;;;;;;9.25;8.30;;;;;;;;;;5052391;28;20075;-52
2022/08/15 08:21:22;;;;;;;9.68;8.60;;;;;;;;;;5047007;28;20053;-53
2022/08/15 08:23:52;;;;;;;8.40;6.78;;;;;;;;;;5048936;28;20053;-50
2022/08/15 08:26:33;;;;;;;10.07;7.28;;;;;;;;;;5053180;28;20083;-56
2022/08/15 08:29:09;;;;;;;12.55;8.23;;;;;;;;;;5052341;28;20067;-54
2022/08/15 08:31:40;;;;;;;9.70;8.23;;;;;;;;;;5047441;28;20440;-51
2022/08/15 08:34:13;;;;;;;8.95;8.00;;;;;;;;;;5051953;28;20041;-51
2022/08/15 08:36:46;;;;;;;12.60;7.97;;;;;;;;;;5044968;28;20139;-50
2022/08/15 08:39:23;;;;;;;10.15;8.25;;;;;;;;;;5048262;28;20149;-52
2022/08/15 08:41:58;;;;;;;10.43;7.97;;;;;;;;;;5052052;28;20052;-50
2022/08/15 08:44:40;;;;;;;11.02;7.10;;;;;;;;;;5051950;28;20370;-50
2022/08/15 08:47:36;;;;;;;11.27;8.02;;;;;;;;;;5050009;28;20052;-52
2022/08/15 08:50:13;;;;;;;11.90;8.63;;;;;;;;;;5047996;28;20128;-55
2022/08/15 08:52:45;;;;;;;10.57;8.15;;;;;;;;;;5046568;28;20521;-51
2022/08/15 08:55:21;;;;;;;9.05;7.10;;;;;;;;;;5048550;28;20068;-50
2022/08/15 08:57:58;;;;;;;11.00;8.00;;;;;;;;;;5052211;28;20064;-50
2022/08/15 09:00:38;;;;;;;10.23;8.13;;;;;;;;;;5051037;28;20505;-50
2022/08/15 09:03:14;;;;;;;8.80;7.25;;;;;;;;;;5051482;28;20075;-50
2022/08/15 09:05:52;;;;;;;9.18;7.40;;;;;;;;;;5037156;28;20068;-50
2022/08/15 09:08:25;;;;;;;11.25;8.02;;;;;;;;;;5051532;28;20056;-53
2022/08/15 09:10:58;;;;;;;12.40;8.85;;;;;;;;;;5052293;28;20128;-51
2022/08/15 09:13:36;;;;;;;9.55;8.27;;;;;;;;;;5050801;28;20053;-54
2022/08/15 09:16:08;;;;;;;8.80;7.43;;;;;;;;;;5051223;28;20474;-49
2022/08/15 09:18:40;;;;;;;9.30;8.30;;;;;;;;;;5045529;28;20106;-52
2022/08/15 09:21:07;;;;;;;13.95;8.10;;;;;;;;;;5052703;28;20084;-55
2022/08/15 09:23:39;;;;;;;8.75;6.72;;;;;;;;;;5053136;28;20044;-56
2022/08/15 09:26:10;;;;;;;10.18;7.97;;;;;;;;;;5052620;28;20041;-51
2022/08/15 09:28:39;;;;;;;10.85;8.40;;;;;;;;;;5045121;28;20053;-51
2022/08/15 09:31:14;;;;;;;10.02;9.00;;;;;;;;;;5044136;28;20060;-53
2022/08/15 09:34:06;;;;;;;9.95;8.63;;;;;;;;;;5038637;28;20052;-50
2022/08/15 09:36:45;;;;;;;9.68;7.18;;;;;;;;;;5043450;28;20047;-52
2022/08/15 09:39:20;;;;;;;10.95;7.80;;;;;;;;;;5043405;28;20352;-52
2022/08/15 09:41:57;;;;;;;12.27;8.02;;;;;;;;;;5043390;28;20126;-53
2022/08/15 09:44:31;;;;;;;10.70;8.35;;;;;;;;;;5048659;28;20052;-53
2022/08/15 09:47:27;;;;;;;11.27;7.88;;;;;;;;;;5048225;28;20528;-53
2022/08/15 09:50:28;;;;;;;8.98;7.68;;;;;;;;;;5044212;28;20076;-52
2022/08/15 09:53:03;;;;;;;11.18;8.50;;;;;;;;;;5003044;28;20108;-51
2022/08/15 09:55:46;;;;;;;9.73;8.68;;;;;;;;;;5040101;28;20040;-52
2022/08/15 09:58:20;;;;;;;11.10;8.95;;;;;;;;;;5045436;28;20078;-52
2022/08/15 10:00:52;;;;;;;;;;;;;;;;;;5049851;28;20049;-53
2022/08/15 10:03:51;;;;;;;10.35;8.15;;;;;;;;;;5045900;28;20241;-53
2022/08/15 10:06:28;;;;;;;9.13;8.20;;;;;;;;;;5040915;28;20076;-56
2022/08/15 10:09:10;;;;;;;10.05;7.95;;;;;;;;;;5047701;28;20056;-53
2022/08/15 10:11:57;;;;;;;8.60;7.45;;;;;;;;;;5050237;28;20132;-51
2022/08/15 10:14:32;;;;;;;14.05;8.32;;;;;;;;;;5052976;28;20135;-52
2022/08/15 10:17:21;;;;;;;11.60;7.95;;;;;;;;;;5053480;28;20056;-51
2022/08/15 10:20:01;;;;;;;10.65;8.27;;;;;;;;;;5052466;28;20393;-52
2022/08/15 10:22:45;;;;;;;11.20;8.27;;;;;;;;;;5054339;28;20444;-53
2022/08/15 10:25:24;;;;;;;11.30;9.00;;;;;;;;;;5043031;28;20059;-52
2022/08/15 10:27:57;;;;;;;10.60;9.05;;;;;;;;;;5047799;28;20144;-51
2022/08/15 10:30:27;;;;;;;12.35;8.35;;;;;;;;;;5053706;28;20074;-52
2022/08/15 10:32:56;;;;;;;10.57;8.60;;;;;;;;;;5054432;28;20053;-52
2022/08/15 10:35:32;;;;;;;9.27;7.85;;;;;;;;;;5051435;28;20049;-52
2022/08/15 10:38:03;;;;;;;12.27;8.27;;;;;;;;;;5041573;28;20474;-55
2022/08/15 10:40:36;;;;;;;14.82;9.13;;;;;;;;;;5050307;28;20063;-52
2022/08/15 10:43:08;;;;;;;12.18;9.43;;;;;;;;;;5051129;28;20048;-53
2022/08/15 10:45:41;;;;;;;9.70;8.48;;;;;;;;;;5051413;28;20033;-52
2022/08/15 10:48:15;;;;;;;11.05;8.95;;;;;;;;;;5048914;28;20226;-51
2022/08/15 10:50:53;;;;;;;13.20;8.45;;;;;;;;;;5047879;28;20053;-54
2022/08/15 10:53:32;;;;;;;9.93;8.63;;;;;;;;;;5047755;28;20059;-51
2022/08/15 10:56:10;;;;;;;9.57;8.15;;;;;;;;;;5047990;28;20049;-50
2022/08/15 10:58:49;;;;;;;10.90;8.48;;;;;;;;;;5043031;28;20057;-50
2022/08/15 11:01:22;;;;;;;9.75;8.75;;;;;;;;;;5050155;28;20056;-55
2022/08/15 11:04:01;;;;;;;11.32;8.07;;;;;;;;;;5053680;28;20057;-53
2022/08/15 11:06:43;;;;;;;14.48;9.32;;;;;;;;;;5053711;28;20045;-51
2022/08/15 11:09:17;;;;;;;11.85;9.20;;;;;;;;;;5050855;28;20048;-52
2022/08/15 11:11:52;;;;;;;10.68;8.38;;;;;;;;;;5041733;28;20464;-54
2022/08/15 11:14:24;;;;;;;12.23;9.30;;;;;;;;;;5051782;28;20144;-52
2022/08/15 11:16:54;;;;;;;13.85;10.07;;;;;;;;;;5053882;28;20052;-52
2022/08/15 11:19:25;;;;;;;11.75;8.57;;;;;;;;;;5044818;28;20060;-52
2022/08/15 11:21:55;;;;;;;9.85;8.63;;;;;;;;;;5048803;28;20377;-51
2022/08/15 11:24:28;;;;;;;9.77;7.97;;;;;;;;;;5052695;28;20052;-51
2022/08/15 11:27:08;;;;;;;9.57;7.55;;;;;;;;;;5053539;28;20053;-54
2022/08/15 11:29:39;;;;;;;8.73;7.43;;;;;;;;;;5045203;28;20060;-54
2022/08/15 11:32:11;;;;;;;9.98;8.35;;;;;;;;;;5052999;28;20549;-53
2022/08/15 11:34:51;;;;;;;10.15;7.70;;;;;;;;;;5042016;28;20097;-55
2022/08/15 11:37:24;;;;;;;10.50;7.78;;;;;;;;;;5050810;28;20059;-54
2022/08/15 11:39:57;;;;;;;9.88;7.68;;;;;;;;;;5049425;28;20084;-52
2022/08/15 11:42:26;;;;;;;11.00;8.55;;;;;;;;;;5052526;28;20155;-53
2022/08/15 11:44:56;;;;;;;10.57;7.30;;;;;;;;;;5053390;28;20383;-52
2022/08/15 11:47:32;;;;;;;12.43;9.23;;;;;;;;;;5052992;28;20053;-50
2022/08/15 11:50:10;;;;;;;10.75;9.10;;;;;;;;;;5053492;28;20782;-50
2022/08/15 11:52:53;;;;;;;10.02;8.25;;;;;;;;;;5053538;28;20064;-52
2022/08/15 11:55:24;;;;;;;9.45;8.45;;;;;;;;;;5046554;28;20048;-51
2022/08/15 11:58:06;;;;;;;9.27;8.00;;;;;;;;;;5052136;28;20128;-50
2022/08/15 12:00:40;;;;;;;10.68;8.55;;;;;;;;;;5040789;28;20045;-56
2022/08/15 12:03:19;;;;;;;12.13;7.63;;;;;;;;;;5050001;28;20057;-51
2022/08/15 12:05:48;;;;;;;8.63;7.18;;;;;;;;;;5038203;28;20059;-51
2022/08/15 12:08:23;;;;;;;10.40;8.18;;;;;;;;;;5052490;28;20041;-53
2022/08/15 12:10:52;;;;;;;10.90;8.80;;;;;;;;;;5045551;28;20106;-51
2022/08/15 12:13:26;;;;;;;13.13;8.88;;;;;;;;;;5045177;28;20059;-53
2022/08/15 12:16:03;;;;;;;12.68;9.70;;;;;;;;;;5052485;28;20041;-49
2022/08/15 12:18:33;;;;;;;11.68;8.50;;;;;;;;;;5052283;28;20057;-54
2022/08/15 12:21:06;;;;;;;11.13;8.98;;;;;;;;;;5052852;28;20105;-51
2022/08/15 12:23:43;;;;;;;12.48;9.00;;;;;;;;;;5045761;28;20041;-56
2022/08/15 12:26:11;;;;;;;13.68;9.50;;;;;;;;;;5047870;28;20103;-54
2022/08/15 12:28:39;;;;;;;11.45;8.63;;;;;;;;;;5044000;28;20057;-52
2022/08/15 12:31:21;;;;;;;13.68;9.40;;;;;;;;;;5048430;28;20045;-51
2022/08/15 12:33:50;;;;;;;13.93;8.75;;;;;;;;;;5051116;28;20487;-57
2022/08/15 12:36:17;;;;;;;12.90;9.13;;;;;;;;;;5049677;28;20045;-51
2022/08/15 12:38:55;;;;;;;12.32;9.55;;;;;;;;;;5049025;28;20052;-55
2022/08/15 12:41:23;;;;;;;11.18;8.50;;;;;;;;;;5052157;28;20055;-52
2022/08/15 12:43:51;;;;;;;11.25;9.35;;;;;;;;;;5052604;28;20041;-49
2022/08/15 12:46:19;;;;;;;13.48;7.97;;;;;;;;;;5052542;28;20049;-48
2022/08/15 12:48:48;;;;;;;12.25;8.23;;;;;;;;;;5052289;28;20110;-49
2022/08/15 12:51:17;;;;;;;9.90;8.55;;;;;;;;;;5052275;28;20497;-48
2022/08/15 12:54:00;;;;;;;12.05;8.02;;;;;;;;;;5052390;28;20086;-48
2022/08/15 12:56:31;;;;;;;16.88;8.55;;;;;;;;;;5050637;28;20049;-48
2022/08/15 12:59:03;;;;;;;10.18;7.93;;;;;;;;;;5044454;28;20478;-51
2022/08/15 13:01:33;;;;;;;10.35;8.13;;;;;;;;;;5052525;28;20140;-49
2022/08/15 13:04:04;;;;;;;14.95;8.55;;;;;;;;;;5051744;28;20061;-51
2022/08/15 13:06:36;;;;;;;11.48;8.80;;;;;;;;;;5052495;28;20084;-48
2022/08/15 13:09:06;;;;;;;10.35;7.90;;;;;;;;;;5052072;28;20075;-48
2022/08/15 13:11:36;;;;;;;10.85;7.85;;;;;;;;;;5052319;28;20065;-48
2022/08/15 13:14:16;;;;;;;12.65;8.45;;;;;;;;;;5052215;28;20700;-49
2022/08/15 13:16:46;;;;;;;10.63;8.82;;;;;;;;;;5052106;28;20045;-48
2022/08/15 13:19:19;;;;;;;8.75;7.57;;;;;;;;;;5055629;28;20107;-48
2022/08/15 13:24:34;;;;;;;12.45;8.35;;;;;;;;;;5047061;28;20203;-48
2022/08/15 13:27:11;;;;;;;9.48;7.88;;;;;;;;;;5055267;28;20474;-49
2022/08/15 13:29:41;;;;;;;10.60;7.65;;;;;;;;;;5039252;28;20049;-48
2022/08/15 13:32:10;;;;;;;10.68;8.02;;;;;;;;;;5046713;28;20785;-48
2022/08/15 13:34:41;;;;;;;10.57;8.18;;;;;;;;;;5044776;28;20049;-48
2022/08/15 13:37:10;;;;;;;8.70;7.32;;;;;;;;;;5045094;28;20076;-48
2022/08/15 13:39:48;;;;;;;10.35;7.18;;;;;;;;;;5047260;28;20469;-49
2022/08/15 13:42:16;;;;;;;7.60;6.43;;;;;;;;;;5055818;28;20041;-49
2022/08/15 13:44:45;;;;;;;9.65;6.95;;;;;;;;;;5053857;28;20126;-52
2022/08/15 13:47:17;;;;;;;10.13;6.82;;;;;;;;;;5053499;28;20041;-50
2022/08/15 13:49:47;;;;;;;10.85;7.80;;;;;;;;;;5055413;28;20774;-49
2022/08/15 13:52:15;;;;;;;15.63;11.32;;;;;;;;;;5055418;28;20087;-49
2022/08/15 13:54:56;;;;;;;13.27;8.18;;;;;;;;;;5054595;28;20472;-51
2022/08/15 13:57:26;;;;;;;13.90;7.43;;;;;;;;;;5055486;28;20051;-50
2022/08/15 13:59:52;;;;;;;13.35;7.82;;;;;;;;;;5055139;28;20098;-52
2022/08/15 14:02:22;;;;;;;15.38;7.00;;;;;;;;;;5055520;28;20049;-49
2022/08/15 14:04:51;;;;;;;10.90;7.00;;;;;;;;;;5054266;28;20088;-53
2022/08/15 14:07:19;;;;;;;9.95;6.28;;;;;;;;;;5054620;28;20106;-50
2022/08/15 14:10:03;;;;;;;5.28;4.53;;;;;;;;;;5054117;28;20052;-49
2022/08/15 14:12:29;;;;;;;8.95;5.60;;;;;;;;;;5054883;28;20056;-49
2022/08/15 14:14:58;;;;;;;7.90;5.65;;;;;;;;;;5050917;28;20077;-50
2022/08/15 14:17:27;;;;;;;9.85;6.40;;;;;;;;;;5054847;28;20045;-48
2022/08/15 14:20:00;;;;;;;10.13;6.22;;;;;;;;;;5054336;28;20350;-48
2022/08/15 14:22:29;;;;;;;10.63;6.85;;;;;;;;;;5050731;28;20053;-52
2022/08/15 14:25:08;;;;;;;11.05;5.80;;;;;;;;;;5049778;28;20061;-52
2022/08/15 14:27:43;;;;;;;8.95;6.55;;;;;;;;;;5049915;28;20076;-48
2022/08/15 14:30:12;;;;;;;9.02;5.57;;;;;;;;;;5042197;28;20119;-47
2022/08/15 14:32:42;;;;;;;5.82;5.20;;;;;;;;;;5054789;28;20469;-48
2022/08/15 14:35:13;;;;;;;9.88;6.57;;;;;;;;;;5055244;28;20450;-48
2022/08/15 14:37:43;;;;;;;7.05;5.90;;;;;;;;;;5054284;28;20048;-51
2022/08/15 14:40:27;;;;;;;7.13;5.05;;;;;;;;;;5055556;28;20040;-50
2022/08/15 14:42:55;;;;;;;7.70;5.80;;;;;;;;;;5054795;28;20473;-48
2022/08/15 14:45:24;;;;;;;8.48;6.65;;;;;;;;;;5049078;28;20057;-48
2022/08/15 14:47:53;;;;;;;6.57;4.75;;;;;;;;;;5047585;28;20055;-48
2022/08/15 14:50:21;;;;;;;6.00;5.05;;;;;;;;;;5054258;28;20091;-47
2022/08/15 14:52:52;;;;;;;8.52;5.72;;;;;;;;;;5055743;28;20057;-48
2022/08/15 14:55:19;;;;;;;6.90;5.47;;;;;;;;;;5055327;28;20045;-47
2022/08/15 14:57:49;;;;;;;7.30;5.53;;;;;;;;;;5054492;28;20055;-48
2022/08/15 15:00:21;;;;;;;6.57;5.00;;;;;;;;;;5051108;28;20742;-50
2022/08/15 15:02:54;;;;;;;6.93;5.10;;;;;;;;;;5053617;28;20526;-48
2022/08/15 15:05:24;;;;;;;6.25;4.57;;;;;;;;;;5052762;28;20053;-51
2022/08/15 15:08:03;;;;;;;7.47;5.32;;;;;;;;;;5053213;28;20053;-49
2022/08/15 15:10:40;;;;;;;6.25;4.95;;;;;;;;;;5054336;28;20057;-49
2022/08/15 15:13:14;;;;;;;7.50;5.32;;;;;;;;;;5053755;28;20390;-48
2022/08/15 15:15:52;;;;;;;7.90;5.30;;;;;;;;;;5053302;28;20084;-48
2022/08/15 15:18:29;;;;;;;7.45;5.57;;;;;;;;;;5054470;28;20307;-48
2022/08/15 15:20:58;;;;;;;6.93;5.25;;;;;;;;;;5054630;28;20049;-48